sensor_id;sensor_type;location;lat;lon;timestamp;pressure;altitude;pressure_sealevel;temperature;humidity
62402;BME280;48440;51.224;22.506;2023-07-16T00:01:51;99118.53;;;22.65;62.20
62402;BME280;48440;51.224;22.506;2023-07-16T00:04:17;99110.56;;;22.64;62.08
62402;BME280;48440;51.224;22.506;2023-07-16T00:06:45;99119.53;;;22.61;62.65
62402;BME280;48440;51.224;22.506;2023-07-16T00:09:13;99111.63;;;22.59;62.69
62402;BME280;48440;51.224;22.506;2023-07-16T00:11:42;99112.41;;;22.60;62.78
62402;BME280;48440;51.224;22.506;2023-07-16T00:14:10;99111.94;;;22.58;62.61
62402;BME280;48440;51.224;22.506;2023-07-16T00:16:35;99112.97;;;22.53;62.89
62402;BME280;48440;51.224;22.506;2023-07-16T00:19:01;99104.38;;;22.46;63.07
62402;BME280;48440;51.224;22.506;2023-07-16T00:21:27;99105.41;;;22.42;62.73
62402;BME280;48440;51.224;22.506;2023-07-16T00:24:05;99096.06;;;22.34;63.06
62402;BME280;48440;51.224;22.506;2023-07-16T00:26:32;99100.88;;;22.37;62.88
62402;BME280;48440;51.224;22.506;2023-07-16T00:28:58;99098.25;;;22.41;62.65
62402;BME280;48440;51.224;22.506;2023-07-16T00:31:23;99105.72;;;22.40;62.65
62402;BME280;48440;51.224;22.506;2023-07-16T00:33:49;99106.88;;;22.39;62.34
62402;BME280;48440;51.224;22.506;2023-07-16T00:36:15;99099.63;;;22.34;62.49
62402;BME280;48440;51.224;22.506;2023-07-16T00:38:40;99099.25;;;22.36;62.60
62402;BME280;48440;51.224;22.506;2023-07-16T00:41:08;99102.50;;;22.38;62.35
62402;BME280;48440;51.224;22.506;2023-07-16T00:43:34;99095.00;;;22.39;62.57
62402;BME280;48440;51.224;22.506;2023-07-16T00:46:02;99096.84;;;22.34;62.46
62402;BME280;48440;51.224;22.506;2023-07-16T00:48:28;99095.00;;;22.39;62.49
62402;BME280;48440;51.224;22.506;2023-07-16T00:50:55;99091.78;;;22.37;62.48
62402;BME280;48440;51.224;22.506;2023-07-16T00:53:21;99095.00;;;22.39;62.23
62402;BME280;48440;51.224;22.506;2023-07-16T00:55:47;99090.28;;;22.39;62.44
62402;BME280;48440;51.224;22.506;2023-07-16T00:58:13;99091.78;;;22.37;62.14
62402;BME280;48440;51.224;22.506;2023-07-16T01:00:41;99095.25;;;22.33;62.34
62402;BME280;48440;51.224;22.506;2023-07-16T01:03:09;99088.91;;;22.33;62.51
62402;BME280;48440;51.224;22.506;2023-07-16T01:08:32;99090.97;;;22.36;62.12
62402;BME280;48440;51.224;22.506;2023-07-16T01:11:09;99091.91;;;22.40;61.96
62402;BME280;48440;51.224;22.506;2023-07-16T01:13:46;99086.72;;;22.39;62.09
62402;BME280;48440;51.224;22.506;2023-07-16T01:16:22;99082.00;;;22.39;62.01
62402;BME280;48440;51.224;22.506;2023-07-16T01:18:48;99085.09;;;22.38;62.01
62402;BME280;48440;51.224;22.506;2023-07-16T01:21:26;99090.53;;;22.34;62.17
62402;BME280;48440;51.224;22.506;2023-07-16T01:29:31;99091.19;;;22.31;62.58
62402;BME280;48440;51.224;22.506;2023-07-16T01:32:11;99092.34;;;22.30;62.78
62402;BME280;48440;51.224;22.506;2023-07-16T01:34:41;99092.53;;;22.25;63.20
62402;BME280;48440;51.224;22.506;2023-07-16T01:37:08;99094.00;;;22.22;63.37
62402;BME280;48440;51.224;22.506;2023-07-16T01:39:34;99095.69;;;22.15;63.25
62402;BME280;48440;51.224;22.506;2023-07-16T01:42:06;99090.50;;;22.13;63.37
62402;BME280;48440;51.224;22.506;2023-07-16T01:44:31;99086.78;;;22.09;63.52
62402;BME280;48440;51.224;22.506;2023-07-16T01:49:44;99084.25;;;22.04;64.02
62402;BME280;48440;51.224;22.506;2023-07-16T01:52:10;99084.09;;;22.00;64.22
62402;BME280;48440;51.224;22.506;2023-07-16T01:54:36;99086.84;;;22.00;63.95
62402;BME280;48440;51.224;22.506;2023-07-16T01:57:01;99083.78;;;21.93;64.29
62402;BME280;48440;51.224;22.506;2023-07-16T01:59:32;99082.63;;;21.94;64.35
62402;BME280;48440;51.224;22.506;2023-07-16T02:01:58;99072.72;;;21.93;64.21
62402;BME280;48440;51.224;22.506;2023-07-16T02:04:23;99074.53;;;21.89;64.66
62402;BME280;48440;51.224;22.506;2023-07-16T02:06:49;99071.63;;;21.86;64.59
62402;BME280;48440;51.224;22.506;2023-07-16T02:09:18;99074.28;;;21.82;64.70
62402;BME280;48440;51.224;22.506;2023-07-16T02:11:44;99069.53;;;21.83;64.75
62402;BME280;48440;51.224;22.506;2023-07-16T02:14:09;99077.81;;;21.83;64.89
62402;BME280;48440;51.224;22.506;2023-07-16T02:16:35;99065.63;;;21.84;64.62
62402;BME280;48440;51.224;22.506;2023-07-16T02:19:01;99070.22;;;21.80;64.70
62402;BME280;48440;51.224;22.506;2023-07-16T02:21:50;99073.81;;;21.80;64.51
62402;BME280;48440;51.224;22.506;2023-07-16T02:24:33;99068.63;;;21.79;64.81
62402;BME280;48440;51.224;22.506;2023-07-16T02:27:35;99067.66;;;21.75;64.99
62402;BME280;48440;51.224;22.506;2023-07-16T02:30:18;99066.50;;;21.76;65.04
62402;BME280;48440;51.224;22.506;2023-07-16T02:32:44;99066.03;;;21.74;64.99
62402;BME280;48440;51.224;22.506;2023-07-16T02:35:10;99067.50;;;21.71;65.42
62402;BME280;48440;51.224;22.506;2023-07-16T02:37:38;99074.97;;;21.71;65.24
62402;BME280;48440;51.224;22.506;2023-07-16T02:40:07;99066.56;;;21.67;65.67
62402;BME280;48440;51.224;22.506;2023-07-16T02:42:36;99068.03;;;21.64;65.92
62402;BME280;48440;51.224;22.506;2023-07-16T02:45:03;99063.66;;;21.63;65.80
62402;BME280;48440;51.224;22.506;2023-07-16T02:47:31;99061.06;;;21.58;66.29
62402;BME280;48440;51.224;22.506;2023-07-16T02:49:57;99067.63;;;21.54;66.64
62402;BME280;48440;51.224;22.506;2023-07-16T02:52:22;99063.41;;;21.48;66.45
62402;BME280;48440;51.224;22.506;2023-07-16T02:54:48;99065.69;;;21.46;66.51
62402;BME280;48440;51.224;22.506;2023-07-16T02:57:23;99063.75;;;21.46;66.68
62402;BME280;48440;51.224;22.506;2023-07-16T02:59:53;99067.31;;;21.47;66.92
62402;BME280;48440;51.224;22.506;2023-07-16T03:02:43;99069.91;;;21.52;66.68
62402;BME280;48440;51.224;22.506;2023-07-16T03:05:16;99061.94;;;21.50;66.76
62402;BME280;48440;51.224;22.506;2023-07-16T03:07:50;99062.44;;;21.52;66.44
62402;BME280;48440;51.224;22.506;2023-07-16T03:10:32;99072.81;;;21.55;66.54
62402;BME280;48440;51.224;22.506;2023-07-16T03:12:58;99070.50;;;21.57;66.45
62402;BME280;48440;51.224;22.506;2023-07-16T03:15:24;99070.16;;;21.59;66.22
62402;BME280;48440;51.224;22.506;2023-07-16T03:17:49;99069.03;;;21.60;66.20
62402;BME280;48440;51.224;22.506;2023-07-16T03:20:15;99056.84;;;21.61;66.14
62402;BME280;48440;51.224;22.506;2023-07-16T03:22:40;99061.88;;;21.59;66.87
62402;BME280;48440;51.224;22.506;2023-07-16T03:25:06;99064.59;;;21.67;66.40
62402;BME280;48440;51.224;22.506;2023-07-16T03:27:32;99063.28;;;21.74;66.52
62402;BME280;48440;51.224;22.506;2023-07-16T03:29:58;99063.09;;;21.79;66.24
62402;BME280;48440;51.224;22.506;2023-07-16T03:32:24;99064.38;;;21.81;66.53
62402;BME280;48440;51.224;22.506;2023-07-16T03:34:49;99062.44;;;21.82;66.22
62402;BME280;48440;51.224;22.506;2023-07-16T03:37:15;99059.66;;;21.82;66.09
62402;BME280;48440;51.224;22.506;2023-07-16T03:39:41;99054.13;;;21.82;66.31
62402;BME280;48440;51.224;22.506;2023-07-16T03:42:06;99040.78;;;21.84;66.06
62402;BME280;48440;51.224;22.506;2023-07-16T03:44:32;99050.34;;;21.86;65.33
62402;BME280;48440;51.224;22.506;2023-07-16T03:46:57;99051.09;;;21.95;65.66
62402;BME280;48440;51.224;22.506;2023-07-16T03:49:23;99052.47;;;22.10;64.83
62402;BME280;48440;51.224;22.506;2023-07-16T03:51:49;99053.38;;;22.23;64.73
62402;BME280;48440;51.224;22.506;2023-07-16T03:54:14;99053.66;;;22.30;64.76
62402;BME280;48440;51.224;22.506;2023-07-16T03:56:40;99043.97;;;22.36;64.47
62402;BME280;48440;51.224;22.506;2023-07-16T03:59:06;99049.97;;;22.38;65.05
62402;BME280;48440;51.224;22.506;2023-07-16T04:01:31;99046.75;;;22.36;64.15
62402;BME280;48440;51.224;22.506;2023-07-16T04:03:57;99046.94;;;22.52;63.69
62402;BME280;48440;51.224;22.506;2023-07-16T04:06:23;99056.84;;;22.53;63.18
62402;BME280;48440;51.224;22.506;2023-07-16T04:08:48;99054.34;;;22.60;62.47
62402;BME280;48440;51.224;22.506;2023-07-16T04:11:14;99058.94;;;22.56;62.43
62402;BME280;48440;51.224;22.506;2023-07-16T04:13:40;99062.88;;;22.67;62.64
62402;BME280;48440;51.224;22.506;2023-07-16T04:16:06;99053.72;;;22.75;61.89
62402;BME280;48440;51.224;22.506;2023-07-16T04:18:31;99059.69;;;22.77;61.82
62402;BME280;48440;51.224;22.506;2023-07-16T04:20:57;99061.25;;;22.87;61.61
62402;BME280;48440;51.224;22.506;2023-07-16T04:23:23;99061.63;;;22.97;61.22
62402;BME280;48440;51.224;22.506;2023-07-16T04:25:53;99069.72;;;23.02;60.83
62402;BME280;48440;51.224;22.506;2023-07-16T04:28:19;99071.59;;;23.11;60.99
62402;BME280;48440;51.224;22.506;2023-07-16T04:30:45;99068.56;;;23.16;60.27
62402;BME280;48440;51.224;22.506;2023-07-16T04:33:10;99072.66;;;23.30;59.97
62402;BME280;48440;51.224;22.506;2023-07-16T04:35:36;99079.59;;;23.37;60.11
62402;BME280;48440;51.224;22.506;2023-07-16T04:38:02;99071.97;;;23.46;59.85
62402;BME280;48440;51.224;22.506;2023-07-16T04:40:29;99063.69;;;23.58;59.51
62402;BME280;48440;51.224;22.506;2023-07-16T04:42:55;99070.72;;;23.67;59.28
62402;BME280;48440;51.224;22.506;2023-07-16T04:45:21;99074.75;;;23.82;58.82
62402;BME280;48440;51.224;22.506;2023-07-16T04:47:46;99074.16;;;24.01;58.77
62402;BME280;48440;51.224;22.506;2023-07-16T04:50:12;99075.88;;;24.06;58.79
62402;BME280;48440;51.224;22.506;2023-07-16T04:52:38;99078.25;;;24.19;58.53
62402;BME280;48440;51.224;22.506;2023-07-16T04:55:04;99077.00;;;24.29;57.70
62402;BME280;48440;51.224;22.506;2023-07-16T04:57:30;99082.19;;;24.30;57.62
62402;BME280;48440;51.224;22.506;2023-07-16T04:59:55;99081.06;;;24.59;57.44
62402;BME280;48440;51.224;22.506;2023-07-16T05:02:21;99084.66;;;24.60;56.89
62402;BME280;48440;51.224;22.506;2023-07-16T05:04:46;99084.34;;;24.77;56.95
62402;BME280;48440;51.224;22.506;2023-07-16T05:07:14;99086.91;;;24.98;56.79
62402;BME280;48440;51.224;22.506;2023-07-16T05:09:42;99081.66;;;25.09;55.95
62402;BME280;48440;51.224;22.506;2023-07-16T05:12:07;99084.78;;;25.23;55.74
62402;BME280;48440;51.224;22.506;2023-07-16T05:14:51;99095.53;;;25.24;55.97
62402;BME280;48440;51.224;22.506;2023-07-16T05:17:17;99083.28;;;25.25;54.98
62402;BME280;48440;51.224;22.506;2023-07-16T05:20:09;99088.66;;;25.34;55.16
62402;BME280;48440;51.224;22.506;2023-07-16T05:22:34;99082.22;;;25.46;54.96
62402;BME280;48440;51.224;22.506;2023-07-16T05:25:12;99080.00;;;25.67;54.36
62402;BME280;48440;51.224;22.506;2023-07-16T05:27:38;99083.91;;;25.82;54.31
62402;BME280;48440;51.224;22.506;2023-07-16T05:30:04;99083.81;;;25.94;53.57
62402;BME280;48440;51.224;22.506;2023-07-16T05:32:30;99085.25;;;25.88;53.51
62402;BME280;48440;51.224;22.506;2023-07-16T05:34:56;99079.56;;;26.00;53.63
62402;BME280;48440;51.224;22.506;2023-07-16T05:37:22;99080.81;;;26.02;53.55
62402;BME280;48440;51.224;22.506;2023-07-16T05:39:47;99086.09;;;26.08;52.94
62402;BME280;48440;51.224;22.506;2023-07-16T05:42:13;99087.00;;;26.12;52.34
62402;BME280;48440;51.224;22.506;2023-07-16T05:44:39;99099.38;;;26.14;53.20
62402;BME280;48440;51.224;22.506;2023-07-16T05:47:05;99095.38;;;26.31;52.85
62402;BME280;48440;51.224;22.506;2023-07-16T05:49:30;99094.75;;;26.38;52.18
62402;BME280;48440;51.224;22.506;2023-07-16T05:51:57;99100.69;;;26.55;52.48
62402;BME280;48440;51.224;22.506;2023-07-16T05:54:23;99102.00;;;26.81;52.28
62402;BME280;48440;51.224;22.506;2023-07-16T05:56:49;99107.41;;;26.93;51.18
62402;BME280;48440;51.224;22.506;2023-07-16T05:59:14;99104.81;;;27.00;50.97
62402;BME280;48440;51.224;22.506;2023-07-16T06:01:40;99109.75;;;27.10;50.50
62402;BME280;48440;51.224;22.506;2023-07-16T06:04:05;99103.06;;;27.15;49.65
62402;BME280;48440;51.224;22.506;2023-07-16T06:06:31;99094.72;;;27.15;50.01
62402;BME280;48440;51.224;22.506;2023-07-16T06:08:57;99092.94;;;27.26;49.36
62402;BME280;48440;51.224;22.506;2023-07-16T06:11:22;99104.94;;;27.30;49.52
62402;BME280;48440;51.224;22.506;2023-07-16T06:13:48;99094.28;;;27.35;49.57
62402;BME280;48440;51.224;22.506;2023-07-16T06:16:13;99091.06;;;27.56;49.42
62402;BME280;48440;51.224;22.506;2023-07-16T06:18:39;99090.28;;;27.79;49.71
62402;BME280;48440;51.224;22.506;2023-07-16T06:21:04;99092.53;;;27.96;48.09
62402;BME280;48440;51.224;22.506;2023-07-16T06:23:30;99092.31;;;28.08;49.01
62402;BME280;48440;51.224;22.506;2023-07-16T06:25:56;99091.66;;;28.18;47.49
62402;BME280;48440;51.224;22.506;2023-07-16T06:28:22;99093.03;;;28.01;47.33
62402;BME280;48440;51.224;22.506;2023-07-16T06:30:47;99096.75;;;28.13;47.52
62402;BME280;48440;51.224;22.506;2023-07-16T06:33:13;99098.41;;;28.17;47.32
62402;BME280;48440;51.224;22.506;2023-07-16T06:35:38;99091.59;;;28.15;47.45
62402;BME280;48440;51.224;22.506;2023-07-16T06:38:04;99094.91;;;28.20;47.43
62402;BME280;48440;51.224;22.506;2023-07-16T06:40:29;99101.69;;;28.49;47.60
62402;BME280;48440;51.224;22.506;2023-07-16T06:42:56;99095.94;;;28.68;47.47
62402;BME280;48440;51.224;22.506;2023-07-16T06:45:21;99100.56;;;28.84;46.91
62402;BME280;48440;51.224;22.506;2023-07-16T06:47:48;99091.09;;;28.95;46.60
62402;BME280;48440;51.224;22.506;2023-07-16T06:50:13;99092.44;;;29.09;46.74
62402;BME280;48440;51.224;22.506;2023-07-16T06:52:39;99091.94;;;28.99;45.49
62402;BME280;48440;51.224;22.506;2023-07-16T06:55:05;99087.53;;;28.98;45.49
62402;BME280;48440;51.224;22.506;2023-07-16T06:57:33;99091.22;;;29.06;45.02
62402;BME280;48440;51.224;22.506;2023-07-16T07:00:08;99085.63;;;29.06;45.22
62402;BME280;48440;51.224;22.506;2023-07-16T07:02:43;99087.72;;;29.16;45.33
62402;BME280;48440;51.224;22.506;2023-07-16T07:05:40;99086.41;;;29.03;45.08
62402;BME280;48440;51.224;22.506;2023-07-16T07:08:09;99084.66;;;29.28;45.27
62402;BME280;48440;51.224;22.506;2023-07-16T07:10:37;99087.41;;;29.25;45.35
62402;BME280;48440;51.224;22.506;2023-07-16T07:13:05;99081.06;;;29.28;44.87
62402;BME280;48440;51.224;22.506;2023-07-16T07:15:30;99080.91;;;29.54;45.24
62402;BME280;48440;51.224;22.506;2023-07-16T07:17:56;99082.81;;;29.43;44.83
62402;BME280;48440;51.224;22.506;2023-07-16T07:20:21;99078.22;;;29.68;45.37
62402;BME280;48440;51.224;22.506;2023-07-16T07:22:47;99082.78;;;29.87;45.22
62402;BME280;48440;51.224;22.506;2023-07-16T07:25:12;99081.13;;;29.79;44.40
62402;BME280;48440;51.224;22.506;2023-07-16T07:27:38;99087.56;;;29.90;44.12
62402;BME280;48440;51.224;22.506;2023-07-16T07:30:03;99080.78;;;29.88;43.79
62402;BME280;48440;51.224;22.506;2023-07-16T07:32:29;99076.97;;;30.10;44.62
62402;BME280;48440;51.224;22.506;2023-07-16T07:34:54;99083.38;;;30.18;43.84
62402;BME280;48440;51.224;22.506;2023-07-16T07:37:20;99077.78;;;30.11;43.07
62402;BME280;48440;51.224;22.506;2023-07-16T07:39:51;99079.34;;;30.08;43.66
62402;BME280;48440;51.224;22.506;2023-07-16T07:42:17;99070.97;;;30.12;42.86
62402;BME280;48440;51.224;22.506;2023-07-16T07:44:43;99079.47;;;30.29;43.57
62402;BME280;48440;51.224;22.506;2023-07-16T07:47:08;99077.88;;;30.28;42.76
62402;BME280;48440;51.224;22.506;2023-07-16T07:49:34;99084.31;;;30.43;43.25
62402;BME280;48440;51.224;22.506;2023-07-16T07:52:00;99075.25;;;30.60;43.25
62402;BME280;48440;51.224;22.506;2023-07-16T07:54:26;99076.84;;;30.68;42.65
62402;BME280;48440;51.224;22.506;2023-07-16T07:56:51;99080.78;;;30.53;42.53
62402;BME280;48440;51.224;22.506;2023-07-16T07:59:17;99075.13;;;30.46;41.41
62402;BME280;48440;51.224;22.506;2023-07-16T08:01:42;99072.34;;;30.50;41.75
62402;BME280;48440;51.224;22.506;2023-07-16T08:04:08;99077.28;;;30.78;42.48
62402;BME280;48440;51.224;22.506;2023-07-16T08:06:33;99072.94;;;30.91;42.84
62402;BME280;48440;51.224;22.506;2023-07-16T08:08:59;99078.19;;;31.10;41.79
62402;BME280;48440;51.224;22.506;2023-07-16T08:11:24;99069.03;;;31.17;41.73
62402;BME280;48440;51.224;22.506;2023-07-16T08:13:50;99078.25;;;31.28;40.98
62402;BME280;48440;51.224;22.506;2023-07-16T08:16:15;99066.25;;;31.38;41.50
62402;BME280;48440;51.224;22.506;2023-07-16T08:18:41;99062.63;;;31.55;40.61
62402;BME280;48440;51.224;22.506;2023-07-16T08:21:06;99070.25;;;31.62;39.84
62402;BME280;48440;51.224;22.506;2023-07-16T08:23:31;99081.03;;;31.28;39.21
62402;BME280;48440;51.224;22.506;2023-07-16T08:25:59;99093.44;;;31.13;39.81
62402;BME280;48440;51.224;22.506;2023-07-16T08:28:52;99077.03;;;31.18;40.03
62402;BME280;48440;51.224;22.506;2023-07-16T08:34:47;99090.69;;;31.80;40.06
62402;BME280;48440;51.224;22.506;2023-07-16T08:37:13;99089.50;;;31.95;39.71
62402;BME280;48440;51.224;22.506;2023-07-16T08:39:39;99088.66;;;31.98;38.59
62402;BME280;48440;51.224;22.506;2023-07-16T08:42:05;99083.88;;;31.95;38.69
62402;BME280;48440;51.224;22.506;2023-07-16T08:44:31;99078.63;;;32.15;38.68
62402;BME280;48440;51.224;22.506;2023-07-16T08:46:57;99084.22;;;32.29;38.99
62402;BME280;48440;51.224;22.506;2023-07-16T08:49:23;99087.44;;;32.10;37.83
62402;BME280;48440;51.224;22.506;2023-07-16T08:51:51;99098.28;;;32.15;38.66
62402;BME280;48440;51.224;22.506;2023-07-16T08:54:19;99097.47;;;31.97;37.82
62402;BME280;48440;51.224;22.506;2023-07-16T08:56:45;99086.69;;;31.92;38.15
62402;BME280;48440;51.224;22.506;2023-07-16T08:59:11;99095.09;;;31.95;37.77
62402;BME280;48440;51.224;22.506;2023-07-16T09:01:37;99091.47;;;32.13;38.58
62402;BME280;48440;51.224;22.506;2023-07-16T09:04:03;99089.44;;;32.20;39.05
62402;BME280;48440;51.224;22.506;2023-07-16T09:06:30;99077.03;;;32.21;37.94
62402;BME280;48440;51.224;22.506;2023-07-16T09:08:55;99090.63;;;32.41;38.43
62402;BME280;48440;51.224;22.506;2023-07-16T09:11:21;99077.38;;;32.41;37.21
62402;BME280;48440;51.224;22.506;2023-07-16T09:13:50;99080.22;;;32.16;37.21
62402;BME280;48440;51.224;22.506;2023-07-16T09:16:19;99070.19;;;32.19;36.87
62402;BME280;48440;51.224;22.506;2023-07-16T09:18:46;99065.38;;;32.23;37.10
62402;BME280;48440;51.224;22.506;2023-07-16T09:21:13;99059.38;;;32.28;36.67
62402;BME280;48440;51.224;22.506;2023-07-16T09:24:05;99066.19;;;32.16;36.76
62402;BME280;48440;51.224;22.506;2023-07-16T09:26:31;99062.97;;;32.32;37.79
62402;BME280;48440;51.224;22.506;2023-07-16T09:28:57;99058.94;;;32.40;38.50
62402;BME280;48440;51.224;22.506;2023-07-16T09:37:58;99058.06;;;32.57;35.62
62402;BME280;48440;51.224;22.506;2023-07-16T09:40:24;99064.13;;;32.45;36.04
62402;BME280;48440;51.224;22.506;2023-07-16T09:42:50;99062.16;;;32.38;35.94
62402;BME280;48440;51.224;22.506;2023-07-16T09:47:56;99056.47;;;32.49;38.67
62402;BME280;48440;51.224;22.506;2023-07-16T09:50:34;99059.25;;;32.60;37.62
62402;BME280;48440;51.224;22.506;2023-07-16T09:53:04;99060.44;;;32.62;36.96
62402;BME280;48440;51.224;22.506;2023-07-16T09:55:33;99058.84;;;32.61;37.69
62402;BME280;48440;51.224;22.506;2023-07-16T09:58:01;99060.03;;;32.64;37.66
62402;BME280;48440;51.224;22.506;2023-07-16T10:00:52;99056.41;;;32.67;37.25
62402;BME280;48440;51.224;22.506;2023-07-16T10:03:25;99058.44;;;32.59;35.39
62402;BME280;48440;51.224;22.506;2023-07-16T10:06:05;99060.88;;;32.54;36.63
62402;BME280;48440;51.224;22.506;2023-07-16T10:08:34;99055.25;;;32.57;37.11
62402;BME280;48440;51.224;22.506;2023-07-16T10:11:02;99060.03;;;32.60;37.55
62402;BME280;48440;51.224;22.506;2023-07-16T10:13:27;99066.06;;;32.62;37.74
62402;BME280;48440;51.224;22.506;2023-07-16T10:15:59;99059.22;;;32.63;37.64
62402;BME280;48440;51.224;22.506;2023-07-16T10:18:26;99062.84;;;32.64;37.26
62402;BME280;48440;51.224;22.506;2023-07-16T10:23:37;99063.25;;;32.66;36.13
62402;BME280;48440;51.224;22.506;2023-07-16T10:26:05;99055.19;;;32.68;36.15
62402;BME280;48440;51.224;22.506;2023-07-16T10:28:35;99060.84;;;32.57;36.62
62402;BME280;48440;51.224;22.506;2023-07-16T10:31:01;99060.44;;;32.62;37.38
62402;BME280;48440;51.224;22.506;2023-07-16T10:33:26;99052.81;;;32.63;36.10
62402;BME280;48440;51.224;22.506;2023-07-16T10:35:52;99060.44;;;32.62;35.84
62402;BME280;48440;51.224;22.506;2023-07-16T10:38:20;99062.03;;;32.63;36.24
62402;BME280;48440;51.224;22.506;2023-07-16T10:40:46;99044.38;;;32.63;36.69
62402;BME280;48440;51.224;22.506;2023-07-16T10:43:15;99043.19;;;32.60;35.79
62402;BME280;48440;51.224;22.506;2023-07-16T10:45:40;99043.59;;;32.62;36.51
62402;BME280;48440;51.224;22.506;2023-07-16T10:48:06;99039.22;;;32.54;35.52
62402;BME280;48440;51.224;22.506;2023-07-16T10:50:33;99035.25;;;32.48;36.87
62402;BME280;48440;51.224;22.506;2023-07-16T10:53:02;99033.66;;;32.47;35.36
62402;BME280;48440;51.224;22.506;2023-07-16T10:55:28;99033.59;;;32.54;36.74
62402;BME280;48440;51.224;22.506;2023-07-16T10:57:55;99029.97;;;32.57;35.28
62402;BME280;48440;51.224;22.506;2023-07-16T11:00:21;99034.38;;;32.55;35.51
62402;BME280;48440;51.224;22.506;2023-07-16T11:02:50;99030.38;;;32.56;35.30
62402;BME280;48440;51.224;22.506;2023-07-16T11:05:16;99027.97;;;32.54;36.40
62402;BME280;48440;51.224;22.506;2023-07-16T11:07:46;99030.78;;;32.58;36.11
62402;BME280;48440;51.224;22.506;2023-07-16T11:10:15;99026.84;;;32.45;34.15
62402;BME280;48440;51.224;22.506;2023-07-16T11:12:51;99032.44;;;32.45;34.60
62402;BME280;48440;51.224;22.506;2023-07-16T11:15:18;99037.25;;;32.44;34.42
62402;BME280;48440;51.224;22.506;2023-07-16T11:17:48;99034.47;;;32.41;35.45
62402;BME280;48440;51.224;22.506;2023-07-16T11:20:15;99024.84;;;32.38;35.98
62402;BME280;48440;51.224;22.506;2023-07-16T11:22:41;99034.09;;;32.35;36.56
62402;BME280;48440;51.224;22.506;2023-07-16T11:25:12;99030.47;;;32.31;34.95
62402;BME280;48440;51.224;22.506;2023-07-16T11:27:41;99021.69;;;32.25;35.83
62402;BME280;48440;51.224;22.506;2023-07-16T11:30:07;99020.88;;;32.28;35.09
62402;BME280;48440;51.224;22.506;2023-07-16T11:35:04;99022.09;;;32.20;35.52
62402;BME280;48440;51.224;22.506;2023-07-16T11:37:32;99020.91;;;32.07;35.35
62402;BME280;48440;51.224;22.506;2023-07-16T11:40:00;99018.50;;;32.13;35.96
62402;BME280;48440;51.224;22.506;2023-07-16T11:42:29;99022.50;;;32.19;36.23
62402;BME280;48440;51.224;22.506;2023-07-16T11:44:56;99020.50;;;32.19;35.46
62402;BME280;48440;51.224;22.506;2023-07-16T11:47:21;99025.72;;;32.14;35.15
62402;BME280;48440;51.224;22.506;2023-07-16T11:49:48;99020.53;;;32.05;36.28
62402;BME280;48440;51.224;22.506;2023-07-16T11:52:14;99013.31;;;31.97;36.44
62402;BME280;48440;51.224;22.506;2023-07-16T11:54:39;99013.34;;;31.90;36.64
62402;BME280;48440;51.224;22.506;2023-07-16T11:57:06;99007.34;;;31.88;36.78
62402;BME280;48440;51.224;22.506;2023-07-16T11:59:31;99012.16;;;31.91;36.74
62402;BME280;48440;51.224;22.506;2023-07-16T12:01:56;99010.94;;;31.92;37.49
62402;BME280;48440;51.224;22.506;2023-07-16T12:04:22;99012.50;;;31.96;36.69
62402;BME280;48440;51.224;22.506;2023-07-16T12:06:48;99012.13;;;31.98;36.97
62402;BME280;48440;51.224;22.506;2023-07-16T12:09:13;99012.94;;;31.95;36.02
62402;BME280;48440;51.224;22.506;2023-07-16T12:11:39;99014.16;;;31.87;35.79
62402;BME280;48440;51.224;22.506;2023-07-16T12:14:05;99000.13;;;31.87;36.38
62402;BME280;48440;51.224;22.506;2023-07-16T12:16:31;99010.16;;;31.91;36.32
62402;BME280;48440;51.224;22.506;2023-07-16T12:18:57;99010.16;;;31.91;36.65
62402;BME280;48440;51.224;22.506;2023-07-16T12:21:22;99012.56;;;31.89;37.65
62402;BME280;48440;51.224;22.506;2023-07-16T12:23:48;99012.16;;;31.91;36.14
62402;BME280;48440;51.224;22.506;2023-07-16T12:26:13;99006.16;;;31.89;36.73
62402;BME280;48440;51.224;22.506;2023-07-16T12:28:39;99004.94;;;31.79;35.79
62402;BME280;48440;51.224;22.506;2023-07-16T12:31:05;99003.34;;;31.75;37.25
62402;BME280;48440;51.224;22.506;2023-07-16T12:33:31;98995.38;;;31.69;36.21
62402;BME280;48440;51.224;22.506;2023-07-16T12:35:56;99002.97;;;31.62;36.74
62402;BME280;48440;51.224;22.506;2023-07-16T12:38:22;99001.75;;;31.56;37.03
62402;BME280;48440;51.224;22.506;2023-07-16T12:40:47;99006.56;;;31.52;38.40
62402;BME280;48440;51.224;22.506;2023-07-16T12:43:13;99000.97;;;31.48;38.52
62402;BME280;48440;51.224;22.506;2023-07-16T12:45:38;98998.94;;;31.45;38.50
62402;BME280;48440;51.224;22.506;2023-07-16T12:48:04;98994.97;;;31.35;37.86
62402;BME280;48440;51.224;22.506;2023-07-16T12:50:29;99006.97;;;31.36;38.98
62402;BME280;48440;51.224;22.506;2023-07-16T12:52:55;98996.97;;;31.38;38.14
62402;BME280;48440;51.224;22.506;2023-07-16T12:55:20;99003.38;;;31.39;37.68
62402;BME280;48440;51.224;22.506;2023-07-16T12:57:46;98996.56;;;31.44;38.52
62402;BME280;48440;51.224;22.506;2023-07-16T13:00:11;98996.19;;;31.42;38.49
62402;BME280;48440;51.224;22.506;2023-07-16T13:02:38;98998.56;;;31.32;38.60
62402;BME280;48440;51.224;22.506;2023-07-16T13:05:03;98997.78;;;31.32;39.22
62402;BME280;48440;51.224;22.506;2023-07-16T13:07:30;98998.16;;;31.30;38.94
62402;BME280;48440;51.224;22.506;2023-07-16T13:09:57;98998.19;;;31.34;37.68
62402;BME280;48440;51.224;22.506;2023-07-16T13:12:22;98995.38;;;31.30;37.49
62402;BME280;48440;51.224;22.506;2023-07-16T13:14:48;99002.16;;;31.26;38.07
62402;BME280;48440;51.224;22.506;2023-07-16T13:17:13;99008.19;;;31.28;37.83
62402;BME280;48440;51.224;22.506;2023-07-16T13:19:41;98996.56;;;31.26;38.31
62402;BME280;48440;51.224;22.506;2023-07-16T13:22:07;99005.38;;;31.21;37.86